Latest Weather Observations for Busselton Airport

IDW60801

Issued at 4:33 pm WST Thursday 24 August 2017 (issued every 30 minutes, with the page automatically refreshed every 10 minutes)

About weather observations | Map of weather stations | Latest weather observations for WA | Other Formats
Station Details ID: 009603 Name: BUSSELTON AERO Lat: -33.69 Lon: 115.40 Height: 16.3 m
Data from the previous 72 hours. | See also: Recent months at Busselton Airport
Date/Time
WST
Temp
°C
App
Temp
°C
Dew
Point
°C
Rel
Hum
%
Delta-T
°C
Wind Press
QNH
hPa
Press
MSL
hPa
Rain since
9am
mm
Dir  Spd
km/h
Gust
km/h
Spd
kts
Gust
kts
24/04:30pm 17.5 13.8 7.8 53 4.9 SE 17 20 9 11 1025.7 1025.7 0.0
24/04:00pm 17.9 14.3 8.2 53 4.9 SE 17 20 9 11 1025.6 1025.6 0.0
24/03:30pm 17.9 14.3 8.2 53 5.0 SE 17 24 9 13 1025.7 1025.7 0.0
24/03:00pm 18.0 13.7 7.1 49 5.4 SE 19 24 10 13 1025.9 1025.9 0.0
24/02:30pm 17.6 13.3 7.1 50 5.3 SE 19 24 10 13 1026.2 1026.2 0.0
24/02:00pm 18.1 14.7 9.2 56 4.6 SE 17 24 9 13 1026.4 1026.4 0.0
24/01:30pm 17.4 13.2 8.3 55 4.7 SE 20 30 11 16 1026.6 1026.6 0.0
24/01:00pm 17.0 13.4 8.2 56 4.5 SE 17 24 9 13 1027.1 1027.1 0.0
24/12:30pm 16.6 12.2 7.5 55 4.6 SE 20 28 11 15 1027.9 1027.9 0.0
24/12:00pm 16.1 11.8 6.8 54 4.5 E 19 24 10 13 1028.6 1028.6 0.0
24/11:30am 16.0 11.2 7.5 57 4.2 E 22 30 12 16 1029.1 1029.1 0.0
24/11:00am 15.8 11.4 7.6 58 4.1 E 20 26 11 14 1029.6 1029.6 0.0
24/10:30am 15.2 10.9 8.0 62 3.6 E 20 30 11 16 1029.9 1029.9 0.0
24/10:00am 14.3 10.1 7.6 64 3.3 E 19 26 10 14 1029.9 1029.9 0.0
24/09:30am 13.6 9.6 8.2 70 2.7 ESE 19 22 10 12 1030.0 1030.0 0.0
24/09:00am 12.8 8.9 8.7 76 2.0 ESE 19 24 10 13 1030.2 1030.2 0.0
24/08:30am 11.5 8.4 8.7 83 1.4 ESE 15 19 8 10 1030.4 1030.4 0.0
24/08:00am 10.0 7.2 8.6 91 0.7 ESE 13 17 7 9 1030.2 1030.2 0.0
24/07:30am 7.8 5.4 7.1 95 0.3 SE 9 13 5 7 1030.0 1030.0 0.0
24/07:00am 5.6 2.7 4.6 93 0.4 SE 9 11 5 6 1029.8 1029.8 0.0
24/06:30am 5.9 3.0 4.9 93 0.4 ESE 9 11 5 6 1029.7 1029.7 0.0
24/06:00am 5.8 2.5 4.6 92 0.5 ESE 11 11 6 6 1029.6 1029.6 0.0
24/05:30am 6.0 2.3 4.6 91 0.6 ESE 13 13 7 7 1029.4 1029.4 0.0
24/05:00am 6.6 3.0 5.1 90 0.7 ESE 13 15 7 8 1029.4 1029.4 0.0
24/04:30am 7.2 3.8 5.7 90 0.7 ESE 13 15 7 8 1029.3 1029.3 0.0
24/04:00am 7.5 4.1 5.8 89 0.8 ESE 13 15 7 8 1029.2 1029.2 0.0
24/03:30am 8.0 4.6 6.0 87 0.9 ESE 13 15 7 8 1029.2 1029.2 0.0
24/03:00am 8.7 5.5 6.7 87 0.9 ESE 13 17 7 9 1029.3 1029.3 0.0
24/02:30am 8.9 5.7 6.7 86 1.0 ESE 13 17 7 9 1029.5 1029.5 0.0
24/02:00am 9.1 5.9 6.7 85 1.1 ESE 13 19 7 10 1029.7 1029.7 0.0
24/01:30am 9.4 6.3 7.2 86 1.0 SE 13 17 7 9 1029.9 1029.9 0.0
24/01:00am 9.3 5.8 7.1 86 1.0 SE 15 19 8 10 1029.9 1029.9 0.0
24/12:30am 9.6 6.1 7.2 85 1.1 SE 15 19 8 10 1030.0 1030.0 0.0
24/12:00am 9.5 6.0 7.3 86 1.0 SE 15 22 8 12 1030.0 1030.0 0.0
 
Date/Time
WST
Temp
°C
App
Temp
°C
Dew
Point
°C
Rel
Hum
%
Delta-T
°C
Wind Press
QNH
hPa
Press
MSL
hPa
Rain since
9am
mm
Dir  Spd
km/h
Gust
km/h
Spd
kts
Gust
kts
23/11:30pm 9.7 6.3 7.5 86 1.0 SE 15 20 8 11 1030.0 1030.0 0.0
23/11:00pm 9.6 6.1 7.4 86 1.0 SE 15 19 8 10 1030.1 1030.1 0.0
23/10:30pm 9.9 6.9 7.5 85 1.1 SE 13 15 7 8 1030.2 1030.2 0.0
23/10:00pm 10.1 6.6 7.3 83 1.3 SSE 15 17 8 9 1030.2 1030.2 0.0
23/09:30pm 10.6 7.3 8.0 84 1.3 SSE 15 19 8 10 1030.2 1030.2 0.0
23/09:00pm 10.7 7.0 8.1 84 1.3 SSE 17 22 9 12 1029.9 1029.9 0.0
23/08:30pm 10.5 7.2 7.9 84 1.3 S 15 17 8 9 1029.8 1029.8 0.0
23/08:00pm 10.8 7.8 7.9 82 1.4 S 13 17 7 9 1029.6 1029.6 0.0
23/07:30pm 11.1 8.1 7.8 80 1.6 S 13 17 7 9 1029.4 1029.4 0.0
23/07:00pm 11.7 9.1 7.6 76 2.0 SSE 11 13 6 7 1029.2 1029.2 0.0
23/06:30pm 13.2 10.3 8.1 71 2.5 S 13 15 7 8 1028.9 1028.9 0.0
23/06:00pm 12.2 9.4 6.9 70 2.5 S 11 13 6 7 1028.5 1028.5 0.0
23/05:30pm 14.1 11.5 7.6 65 3.2 S 11 13 6 7 1028.2 1028.2 0.0
23/05:00pm 15.4 12.3 7.2 58 4.0 SSE 13 17 7 9 1027.9 1027.9 0.0
23/04:30pm 16.4 13.6 7.1 54 4.6 SE 11 15 6 8 1027.8 1027.8 0.0
23/04:00pm 16.5 13.4 7.2 54 4.6 SSE 13 17 7 9 1027.9 1027.9 0.0
23/03:30pm 16.2 13.2 5.8 50 5.0 SSE 11 15 6 8 1027.9 1027.9 0.0
23/03:00pm 16.6 13.6 6.1 50 5.1 ESE 11 17 6 9 1027.9 1027.9 0.0
23/02:30pm 16.1 12.8 6.5 53 4.7 SE 13 17 7 9 1027.9 1027.9 0.0
23/02:00pm 16.8 14.0 6.9 52 4.9 SE 11 15 6 8 1028.1 1028.1 0.0
23/01:30pm 16.5 13.6 6.6 52 4.9 SE 11 24 6 13 1028.1 1028.1 0.0
23/01:00pm 16.6 13.7 6.4 51 5.0 SE 11 17 6 9 1028.5 1028.5 0.0
23/12:30pm 15.3 12.3 5.8 53 4.6 SSE 11 24 6 13 1028.9 1028.9 0.0
23/12:00pm 15.7 12.2 5.6 51 4.8 E 13 20 7 11 1029.1 1029.1 0.0
23/11:30am 15.6 12.1 5.5 51 4.8 ESE 13 17 7 9 1029.3 1029.3 0.0
23/11:00am 15.6 13.2 7.1 57 4.2 ENE 9 17 5 9 1029.5 1029.5 0.0
23/10:30am 15.1 12.9 6.4 56 4.2 E 7 11 4 6 1029.8 1029.8 0.0
23/10:00am 14.4 12.6 7.0 61 3.6 E 6 9 3 5 1029.8 1029.8 0.0
23/09:30am 14.1 12.1 8.7 70 2.7 E 9 13 5 7 1029.7 1029.7 0.0
23/09:00am 11.6 10.5 9.9 89 0.9 E 6 7 3 4 1029.5 1029.5 0.4
23/08:30am 9.2 7.5 8.3 94 0.4 E 7 9 4 5 1029.3 1029.3 0.4
23/08:00am 7.6 5.6 6.9 95 0.3 E 7 11 4 6 1029.0 1029.0 0.4
23/07:30am 6.7 4.1 6.1 96 0.3 ESE 9 11 5 6 1028.6 1028.6 0.4
23/07:00am 5.4 2.9 4.7 95 0.3 ENE 7 9 4 5 1028.1 1028.1 0.4
23/06:30am 5.8 3.0 5.2 96 0.3 SSE 9 11 5 6 1027.9 1027.9 0.4
23/06:00am 4.9 2.5 4.2 95 0.3 SE 6 7 3 4 1027.6 1027.6 0.4
23/05:30am 4.9 2.5 4.2 95 0.3 S 6 7 3 4 1027.4 1027.4 0.4
23/05:00am 4.2 2.8 3.3 94 0.4 CALM 0 0 0 0 1027.2 1027.2 0.4
23/04:30am 4.0 1.4 3.0 93 0.4 ESE 6 9 3 5 1026.9 1026.9 0.4
23/04:00am 4.8 2.3 3.8 93 0.4 SSW 6 7 3 4 1026.7 1026.7 0.4
23/03:30am 5.6 3.3 4.6 93 0.4 S 6 7 3 4 1026.7 1026.7 0.4
23/03:00am 4.7 1.9 3.4 91 0.5 ESE 7 7 4 4 1026.7 1026.7 0.4
23/02:30am 5.1 2.6 3.6 90 0.6 ESE 6 7 3 4 1026.8 1026.8 0.4
23/02:00am 6.6 4.4 5.1 90 0.7 ESE 6 6 3 3 1026.9 1026.9 0.4
23/01:30am 6.1 3.2 4.4 89 0.7 ESE 9 9 5 5 1026.9 1026.9 0.4
23/01:00am 6.4 3.5 4.4 87 0.9 E 9 11 5 6 1026.8 1026.8 0.4
23/12:30am 7.4 5.2 5.4 87 0.9 SSE 6 7 3 4 1026.7 1026.7 0.4
23/12:00am 7.7 5.0 5.5 86 1.0 S 9 11 5 6 1026.7 1026.7 0.4
 
Date/Time
WST
Temp
°C
App
Temp
°C
Dew
Point
°C
Rel
Hum
%
Delta-T
°C
Wind Press
QNH
hPa
Press
MSL
hPa
Rain since
9am
mm
Dir  Spd
km/h
Gust
km/h
Spd
kts
Gust
kts
22/11:30pm 8.0 4.6 5.8 86 1.0 SSW 13 13 7 7 1026.7 1026.7 0.4
22/11:00pm 8.5 5.2 6.6 88 0.9 S 13 15 7 8 1026.6 1026.6 0.4
22/10:30pm 8.0 5.1 6.3 89 0.8 S 11 11 6 6 1026.6 1026.6 0.4
22/10:00pm 8.7 6.3 7.0 89 0.8 SSW 9 11 5 6 1026.5 1026.5 0.4
22/09:30pm 9.0 6.6 7.0 87 0.9 SSW 9 11 5 6 1026.4 1026.4 0.4
22/09:00pm 9.1 7.0 6.7 85 1.1 SSW 7 9 4 5 1026.1 1026.1 0.4
22/08:30pm 10.1 7.0 7.3 83 1.3 SSW 13 15 7 8 1025.7 1025.7 0.4
22/08:00pm 10.9 7.9 7.8 81 1.5 SSW 13 17 7 9 1025.4 1025.4 0.4
22/07:30pm 10.6 7.5 7.3 80 1.6 S 13 17 7 9 1025.0 1025.0 0.4
22/07:00pm 11.3 8.2 7.4 77 1.9 SSW 13 17 7 9 1024.6 1024.6 0.4
22/06:30pm 11.8 8.3 7.1 73 2.3 SSW 15 17 8 9 1024.0 1024.0 0.4
22/06:00pm 12.8 8.6 7.5 70 2.6 SSW 19 24 10 13 1023.7 1023.7 0.4
22/05:30pm 13.8 9.4 7.6 66 3.1 SSW 20 28 11 15 1023.1 1023.2 0.4
22/05:00pm 15.2 11.0 7.5 60 3.8 SSW 19 22 10 12 1022.6 1022.7 0.4
22/04:30pm 16.1 12.2 7.1 55 4.5 SSW 17 22 9 12 1022.2 1022.3 0.4
22/04:00pm 16.5 12.8 8.0 57 4.3 SSW 17 22 9 12 1022.0 1022.1 0.4
22/03:30pm 16.6 12.4 8.1 57 4.3 SW 20 26 11 14 1021.8 1021.9 0.4
22/03:00pm 16.9 12.9 8.1 56 4.5 SSW 19 28 10 15 1021.6 1021.7 0.4
22/02:30pm 16.7 12.2 8.4 58 4.2 SSW 22 28 12 15 1021.4 1021.5 0.4
22/02:00pm 16.8 13.7 8.8 59 4.1 SSW 15 20 8 11 1021.0 1021.1 0.4
22/01:30pm 16.8 12.6 9.7 63 3.7 SSW 22 28 12 15 1021.3 1021.4 0.4
22/01:00pm 16.7 14.3 10.1 65 3.5 SSW 13 19 7 10 1021.3 1021.4 0.4
22/12:30pm 16.1 12.8 10.8 71 2.8 S 19 24 10 13 1021.6 1021.7 0.4
22/12:00pm 15.8 12.7 10.3 70 2.9 S 17 24 9 13 1021.7 1021.8 0.4
22/11:30am 15.9 14.2 11.3 74 2.5 S 11 15 6 8 1021.8 1021.9 0.4
22/11:00am 15.1 13.1 12.6 85 1.4 S 15 20 8 11 1021.9 1022.0 0.4
22/10:30am 14.4 13.7 14.2 99 0.1 SSE 11 15 6 8 1021.9 1022.0 0.4
22/10:00am 12.9 12.0 12.7 99 0.1 S 9 13 5 7 1021.9 1022.0 0.4
22/09:30am 11.6 10.9 11.4 99 0.1 SSW 6 9 3 5 1021.7 1021.8 0.4
22/09:00am 10.9 8.7 10.7 99 0.1 S 13 17 7 9 1021.6 1021.7 0.6
22/08:30am 10.4 9.2 10.2 99 0.1 SE 7 17 4 9 1021.2 1021.3 0.0
22/08:00am 10.0 8.7 9.9 99 0.1 E 7 11 4 6 1020.8 1020.9 0.0
22/07:30am 8.4 6.3 8.3 99 0.0 ENE 9 13 5 7 1020.5 1020.6 0.0
22/07:00am 8.4 6.3 8.3 99 0.0 E 9 11 5 6 1020.3 1020.4 0.0
22/06:30am 8.0 6.2 7.9 99 0.0 E 7 11 4 6 1020.1 1020.2 0.0
22/06:00am 7.0 4.6 6.9 99 0.0 E 9 11 5 6 1019.9 1019.9 0.0
22/05:30am 7.2 4.4 7.1 99 0.0 E 11 11 6 6 1019.4 1019.4 0.0
22/05:00am 7.3 5.3 7.2 99 0.0 ESE 7 9 4 5 1019.4 1019.4 0.0
22/04:30am 7.4 5.0 7.1 98 0.1 E 9 9 5 5 1019.2 1019.2 0.0
22/04:00am 7.9 5.6 7.6 98 0.1 ENE 9 11 5 6 1019.3 1019.3 0.0
22/03:30am 8.5 6.4 8.2 98 0.1 E 9 9 5 5 1019.4 1019.4 0.0
22/03:00am 8.8 7.7 8.5 98 0.1 E 4 9 2 5 1019.6 1019.6 0.0
22/02:30am 9.1 7.1 8.8 98 0.1 ESE 9 11 5 6 1019.7 1019.7 0.0
22/02:00am 10.1 8.8 10.0 99 0.1 NE 7 9 4 5 1019.8 1019.8 0.0
22/01:30am 10.3 10.4 10.0 98 0.2 CALM 0 0 0 0 1019.8 1019.8 0.0
22/01:00am 10.3 9.0 10.0 98 0.2 E 7 9 4 5 1020.0 1020.0 0.0
22/12:30am 10.2 8.1 9.9 98 0.2 SSW 11 24 6 13 1020.3 1020.4 0.0
22/12:00am 9.1 6.7 8.5 96 0.3 ESE 11 11 6 6 1020.0 1020.0 0.0
 
Date/Time
WST
Temp
°C
App
Temp
°C
Dew
Point
°C
Rel
Hum
%
Delta-T
°C
Wind Press
QNH
hPa
Press
MSL
hPa
Rain since
9am
mm
Dir  Spd
km/h
Gust
km/h
Spd
kts
Gust
kts
21/11:30pm 9.9 8.4 9.3 96 0.3 E 7 9 4 5 1020.1 1020.2 0.0
21/11:00pm 10.7 10.0 9.9 95 0.4 N 4 7 2 4 1020.4 1020.5 0.0
21/10:30pm 9.4 7.3 8.3 93 0.5 ENE 9 9 5 5 1020.6 1020.7 0.0
21/10:00pm 10.1 8.5 8.7 91 0.7 NE 7 9 4 5 1020.9 1021.0 0.0
21/09:30pm 11.5 11.5 9.9 90 0.8 CALM 0 0 0 0 1020.9 1021.0 0.0
21/09:00pm 11.8 10.6 10.2 90 0.8 SW 7 9 4 5 1020.8 1020.9 0.0
21/08:30pm 11.6 10.2 9.7 88 1.0 SSW 7 9 4 5 1020.6 1020.7 0.0
21/08:00pm 11.7 10.2 9.1 84 1.3 S 7 9 4 5 1020.3 1020.4 0.0
21/07:30pm 12.3 10.3 8.6 78 1.8 SW 9 11 5 6 1020.1 1020.2 0.0
21/07:00pm 12.9 10.7 8.0 72 2.4 WSW 9 17 5 9 1019.9 1019.9 0.0
21/06:30pm 13.9 11.9 7.0 63 3.4 WNW 7 11 4 6 1019.7 1019.7 0.0
21/06:00pm 14.2 10.9 6.6 60 3.7 W 13 19 7 10 1019.4 1019.4 0.0
21/05:30pm 14.1 11.6 6.7 61 3.6 WNW 9 15 5 8 1019.3 1019.3 0.0
21/05:00pm 14.6 11.3 6.4 58 3.9 WNW 13 20 7 11 1019.1 1019.1 0.0

Other Formats:

Comma delimited format used in spreadsheet applications
http://www.bom.gov.au/fwo/IDW60801/IDW60801.95611.axf

JavaScript Object Notation format (JSON) in row-major order
http://www.bom.gov.au/fwo/IDW60801/IDW60801.95611.json